52NC weather

Epley Airport
Jacksonville, North Carolina, United States

Public forecast

Using degrees Fahrenheit for public forecast. Weather courtesy of forecast.io.

Closest aviation weather report (METAR) to Epley Airport

Closest report is New River MCAS /H/ /Mccutcheon Fld/ Airport, 11.8 nm (21.9 km) SW. Retrieved 2019/11/15 20:56 UTC (1 hour ago):

KNCA 152056Z 03010KT 7SM -RA OVC006 11/10 A3004 RMK AO2 SLP174 P0008 60018 T01110100 56015

Closest aviation forecast (TAF) to Epley Airport

Forecast is more than 12 hours old.

Closest forecast is New River MCAS /H/ /Mccutcheon Fld/ Airport, 11.8 nm (21.9 km) SW. Retrieved 2014/12/02 09:26 UTC (5 years ago):

TAF KNCA 020900Z 0209/0309 VRB06KT 2400 BR SCT002 QNH3032INS TEMPO 0209/0213 0400 FG VV002 BECMG 0213/0215 05007KT 9999 SCT007 BKN015 QNH3036INS FM030200 VRB03KT 2400 BR BKN007 QNH3034INS T09/0211Z T16/0219Z